sensor_id;sensor_type;location;lat;lon;timestamp;P1;durP1;ratioP1;P2;durP2;ratioP2
54201;SDS011;40108;53.152;5.844;2022-08-20T00:00:08;11.48;;;3.75;;
54201;SDS011;40108;53.152;5.844;2022-08-20T00:02:40;9.55;;;3.40;;
54201;SDS011;40108;53.152;5.844;2022-08-20T00:05:22;12.77;;;3.22;;
54201;SDS011;40108;53.152;5.844;2022-08-20T00:07:50;14.05;;;3.50;;
54201;SDS011;40108;53.152;5.844;2022-08-20T00:10:16;11.27;;;3.05;;
54201;SDS011;40108;53.152;5.844;2022-08-20T00:12:44;6.15;;;2.80;;
54201;SDS011;40108;53.152;5.844;2022-08-20T00:15:11;9.45;;;3.25;;
54201;SDS011;40108;53.152;5.844;2022-08-20T00:17:37;11.27;;;3.92;;
54201;SDS011;40108;53.152;5.844;2022-08-20T00:20:04;12.60;;;4.32;;
54201;SDS011;40108;53.152;5.844;2022-08-20T00:22:33;9.55;;;5.05;;
54201;SDS011;40108;53.152;5.844;2022-08-20T00:24:58;14.35;;;4.72;;
54201;SDS011;40108;53.152;5.844;2022-08-20T00:27:24;12.43;;;4.63;;
54201;SDS011;40108;53.152;5.844;2022-08-20T00:29:50;9.48;;;4.55;;
54201;SDS011;40108;53.152;5.844;2022-08-20T00:32:15;10.18;;;4.32;;
54201;SDS011;40108;53.152;5.844;2022-08-20T00:34:41;10.05;;;4.55;;
54201;SDS011;40108;53.152;5.844;2022-08-20T00:37:07;10.07;;;4.50;;
54201;SDS011;40108;53.152;5.844;2022-08-20T00:39:33;15.43;;;5.18;;
54201;SDS011;40108;53.152;5.844;2022-08-20T00:42:01;12.45;;;4.97;;
54201;SDS011;40108;53.152;5.844;2022-08-20T00:44:28;15.52;;;4.78;;
54201;SDS011;40108;53.152;5.844;2022-08-20T00:46:54;10.73;;;4.60;;
54201;SDS011;40108;53.152;5.844;2022-08-20T00:49:21;11.13;;;5.20;;
54201;SDS011;40108;53.152;5.844;2022-08-20T00:54:38;11.23;;;5.25;;
54201;SDS011;40108;53.152;5.844;2022-08-20T00:57:12;12.48;;;5.25;;
54201;SDS011;40108;53.152;5.844;2022-08-20T00:59:46;13.00;;;4.72;;
54201;SDS011;40108;53.152;5.844;2022-08-20T01:02:15;10.98;;;4.35;;
54201;SDS011;40108;53.152;5.844;2022-08-20T01:04:44;12.20;;;4.75;;
54201;SDS011;40108;53.152;5.844;2022-08-20T01:07:21;12.02;;;4.40;;
54201;SDS011;40108;53.152;5.844;2022-08-20T01:09:54;12.80;;;4.95;;
54201;SDS011;40108;53.152;5.844;2022-08-20T01:12:20;11.90;;;5.30;;
54201;SDS011;40108;53.152;5.844;2022-08-20T01:14:47;9.23;;;5.60;;
54201;SDS011;40108;53.152;5.844;2022-08-20T01:17:15;10.88;;;6.00;;
54201;SDS011;40108;53.152;5.844;2022-08-20T01:19:46;12.90;;;5.63;;
54201;SDS011;40108;53.152;5.844;2022-08-20T01:22:45;12.07;;;6.03;;
54201;SDS011;40108;53.152;5.844;2022-08-20T01:28:10;10.20;;;5.10;;
54201;SDS011;40108;53.152;5.844;2022-08-20T01:30:36;13.60;;;5.28;;
54201;SDS011;40108;53.152;5.844;2022-08-20T01:33:03;11.68;;;5.00;;
54201;SDS011;40108;53.152;5.844;2022-08-20T01:35:31;10.70;;;4.93;;
54201;SDS011;40108;53.152;5.844;2022-08-20T01:38:00;11.02;;;5.28;;
54201;SDS011;40108;53.152;5.844;2022-08-20T01:40:28;9.32;;;4.70;;
54201;SDS011;40108;53.152;5.844;2022-08-20T01:45:34;17.13;;;5.82;;
54201;SDS011;40108;53.152;5.844;2022-08-20T01:48:00;8.90;;;4.95;;
54201;SDS011;40108;53.152;5.844;2022-08-20T01:50:28;16.75;;;5.88;;
54201;SDS011;40108;53.152;5.844;2022-08-20T01:55:28;8.55;;;4.72;;
54201;SDS011;40108;53.152;5.844;2022-08-20T01:57:55;8.68;;;4.10;;
54201;SDS011;40108;53.152;5.844;2022-08-20T02:00:21;13.55;;;4.78;;
54201;SDS011;40108;53.152;5.844;2022-08-20T02:02:50;13.82;;;4.57;;
54201;SDS011;40108;53.152;5.844;2022-08-20T02:05:17;12.73;;;4.40;;
54201;SDS011;40108;53.152;5.844;2022-08-20T02:07:44;11.93;;;4.00;;
54201;SDS011;40108;53.152;5.844;2022-08-20T02:10:11;13.95;;;2.85;;
54201;SDS011;40108;53.152;5.844;2022-08-20T02:12:38;10.88;;;2.97;;
54201;SDS011;40108;53.152;5.844;2022-08-20T02:15:05;11.57;;;2.55;;
54201;SDS011;40108;53.152;5.844;2022-08-20T02:17:34;9.90;;;2.95;;
54201;SDS011;40108;53.152;5.844;2022-08-20T02:20:02;10.43;;;2.22;;
54201;SDS011;40108;53.152;5.844;2022-08-20T02:22:44;11.80;;;2.42;;
54201;SDS011;40108;53.152;5.844;2022-08-20T02:25:19;9.73;;;1.90;;
54201;SDS011;40108;53.152;5.844;2022-08-20T02:27:47;11.82;;;2.13;;
54201;SDS011;40108;53.152;5.844;2022-08-20T02:30:16;12.48;;;1.98;;
54201;SDS011;40108;53.152;5.844;2022-08-20T02:32:45;10.57;;;1.95;;
54201;SDS011;40108;53.152;5.844;2022-08-20T02:35:10;10.55;;;2.38;;
54201;SDS011;40108;53.152;5.844;2022-08-20T02:37:38;10.10;;;2.40;;
54201;SDS011;40108;53.152;5.844;2022-08-20T02:40:06;11.38;;;2.38;;
54201;SDS011;40108;53.152;5.844;2022-08-20T02:42:33;11.13;;;2.78;;
54201;SDS011;40108;53.152;5.844;2022-08-20T02:44:59;12.30;;;1.90;;
54201;SDS011;40108;53.152;5.844;2022-08-20T02:47:25;10.70;;;1.80;;
54201;SDS011;40108;53.152;5.844;2022-08-20T02:49:54;10.88;;;2.10;;
54201;SDS011;40108;53.152;5.844;2022-08-20T02:52:22;11.30;;;1.90;;
54201;SDS011;40108;53.152;5.844;2022-08-20T02:54:47;7.35;;;1.83;;
54201;SDS011;40108;53.152;5.844;2022-08-20T02:57:17;10.35;;;1.65;;
54201;SDS011;40108;53.152;5.844;2022-08-20T02:59:47;9.57;;;1.55;;
54201;SDS011;40108;53.152;5.844;2022-08-20T03:02:13;14.90;;;2.20;;
54201;SDS011;40108;53.152;5.844;2022-08-20T03:04:40;8.90;;;1.63;;
54201;SDS011;40108;53.152;5.844;2022-08-20T03:07:07;10.02;;;1.92;;
54201;SDS011;40108;53.152;5.844;2022-08-20T03:09:34;8.50;;;1.95;;
54201;SDS011;40108;53.152;5.844;2022-08-20T03:12:01;11.73;;;1.63;;
54201;SDS011;40108;53.152;5.844;2022-08-20T03:14:28;15.73;;;1.98;;
54201;SDS011;40108;53.152;5.844;2022-08-20T03:16:54;8.05;;;1.75;;
54201;SDS011;40108;53.152;5.844;2022-08-20T03:19:19;11.90;;;1.75;;
54201;SDS011;40108;53.152;5.844;2022-08-20T03:21:45;9.52;;;1.75;;
54201;SDS011;40108;53.152;5.844;2022-08-20T03:24:11;10.90;;;1.60;;
54201;SDS011;40108;53.152;5.844;2022-08-20T03:26:37;11.93;;;1.75;;
54201;SDS011;40108;53.152;5.844;2022-08-20T03:29:03;8.00;;;1.70;;
54201;SDS011;40108;53.152;5.844;2022-08-20T03:31:29;11.85;;;1.92;;
54201;SDS011;40108;53.152;5.844;2022-08-20T03:33:55;9.68;;;1.63;;
54201;SDS011;40108;53.152;5.844;2022-08-20T03:36:21;8.27;;;1.90;;
54201;SDS011;40108;53.152;5.844;2022-08-20T03:38:48;11.88;;;1.88;;
54201;SDS011;40108;53.152;5.844;2022-08-20T03:41:14;10.10;;;2.00;;
54201;SDS011;40108;53.152;5.844;2022-08-20T03:43:40;7.22;;;1.60;;
54201;SDS011;40108;53.152;5.844;2022-08-20T03:46:06;10.38;;;2.20;;
54201;SDS011;40108;53.152;5.844;2022-08-20T03:48:32;10.30;;;1.60;;
54201;SDS011;40108;53.152;5.844;2022-08-20T03:50:58;10.93;;;1.98;;
54201;SDS011;40108;53.152;5.844;2022-08-20T03:53:27;13.43;;;2.28;;
54201;SDS011;40108;53.152;5.844;2022-08-20T03:55:57;10.57;;;2.00;;
54201;SDS011;40108;53.152;5.844;2022-08-20T03:58:28;8.57;;;2.20;;
54201;SDS011;40108;53.152;5.844;2022-08-20T04:00:55;10.48;;;2.00;;
54201;SDS011;40108;53.152;5.844;2022-08-20T04:03:21;8.18;;;2.03;;
54201;SDS011;40108;53.152;5.844;2022-08-20T04:05:48;9.88;;;2.13;;
54201;SDS011;40108;53.152;5.844;2022-08-20T04:08:18;8.98;;;2.42;;
54201;SDS011;40108;53.152;5.844;2022-08-20T04:10:48;6.25;;;2.67;;
54201;SDS011;40108;53.152;5.844;2022-08-20T04:13:15;10.60;;;2.88;;
54201;SDS011;40108;53.152;5.844;2022-08-20T04:15:43;10.15;;;2.83;;
54201;SDS011;40108;53.152;5.844;2022-08-20T04:18:12;10.73;;;2.58;;
54201;SDS011;40108;53.152;5.844;2022-08-20T04:20:44;7.70;;;2.47;;
54201;SDS011;40108;53.152;5.844;2022-08-20T04:23:11;8.77;;;2.75;;
54201;SDS011;40108;53.152;5.844;2022-08-20T04:25:39;7.68;;;2.88;;
54201;SDS011;40108;53.152;5.844;2022-08-20T04:28:11;8.07;;;2.38;;
54201;SDS011;40108;53.152;5.844;2022-08-20T04:30:39;10.70;;;2.50;;
54201;SDS011;40108;53.152;5.844;2022-08-20T04:33:06;9.13;;;2.45;;
54201;SDS011;40108;53.152;5.844;2022-08-20T04:35:33;8.55;;;2.25;;
54201;SDS011;40108;53.152;5.844;2022-08-20T04:38:06;8.85;;;2.50;;
54201;SDS011;40108;53.152;5.844;2022-08-20T04:40:33;9.13;;;2.90;;
54201;SDS011;40108;53.152;5.844;2022-08-20T04:43:22;13.43;;;2.40;;
54201;SDS011;40108;53.152;5.844;2022-08-20T04:45:50;10.38;;;2.67;;
54201;SDS011;40108;53.152;5.844;2022-08-20T04:48:19;12.75;;;2.38;;
54201;SDS011;40108;53.152;5.844;2022-08-20T04:50:48;10.25;;;2.38;;
54201;SDS011;40108;53.152;5.844;2022-08-20T04:53:15;11.43;;;2.80;;
54201;SDS011;40108;53.152;5.844;2022-08-20T04:55:42;10.00;;;2.78;;
54201;SDS011;40108;53.152;5.844;2022-08-20T04:58:15;12.55;;;2.95;;
54201;SDS011;40108;53.152;5.844;2022-08-20T05:00:52;12.10;;;2.77;;
54201;SDS011;40108;53.152;5.844;2022-08-20T05:03:19;9.75;;;2.85;;
54201;SDS011;40108;53.152;5.844;2022-08-20T05:05:45;9.13;;;2.88;;
54201;SDS011;40108;53.152;5.844;2022-08-20T05:08:13;11.82;;;2.97;;
54201;SDS011;40108;53.152;5.844;2022-08-20T05:10:40;12.80;;;2.80;;
54201;SDS011;40108;53.152;5.844;2022-08-20T05:13:07;8.85;;;2.90;;
54201;SDS011;40108;53.152;5.844;2022-08-20T05:15:33;9.65;;;2.63;;
54201;SDS011;40108;53.152;5.844;2022-08-20T05:18:00;10.00;;;2.70;;
54201;SDS011;40108;53.152;5.844;2022-08-20T05:20:28;10.98;;;3.40;;
54201;SDS011;40108;53.152;5.844;2022-08-20T05:22:57;11.57;;;2.88;;
54201;SDS011;40108;53.152;5.844;2022-08-20T05:25:23;9.38;;;2.80;;
54201;SDS011;40108;53.152;5.844;2022-08-20T05:27:57;12.43;;;2.75;;
54201;SDS011;40108;53.152;5.844;2022-08-20T05:30:30;8.10;;;2.88;;
54201;SDS011;40108;53.152;5.844;2022-08-20T05:32:58;9.00;;;2.90;;
54201;SDS011;40108;53.152;5.844;2022-08-20T05:35:25;8.20;;;2.63;;
54201;SDS011;40108;53.152;5.844;2022-08-20T05:37:51;8.27;;;2.85;;
54201;SDS011;40108;53.152;5.844;2022-08-20T05:40:18;8.73;;;2.63;;
54201;SDS011;40108;53.152;5.844;2022-08-20T05:42:45;10.45;;;2.67;;
54201;SDS011;40108;53.152;5.844;2022-08-20T05:45:11;10.10;;;2.35;;
54201;SDS011;40108;53.152;5.844;2022-08-20T05:47:38;9.30;;;2.60;;
54201;SDS011;40108;53.152;5.844;2022-08-20T05:50:05;8.70;;;1.98;;
54201;SDS011;40108;53.152;5.844;2022-08-20T05:52:31;13.10;;;2.50;;
54201;SDS011;40108;53.152;5.844;2022-08-20T05:54:57;11.27;;;2.70;;
54201;SDS011;40108;53.152;5.844;2022-08-20T05:57:23;8.20;;;2.35;;
54201;SDS011;40108;53.152;5.844;2022-08-20T05:59:48;9.32;;;2.38;;
54201;SDS011;40108;53.152;5.844;2022-08-20T06:02:14;11.48;;;2.83;;
54201;SDS011;40108;53.152;5.844;2022-08-20T06:04:58;8.65;;;2.90;;
54201;SDS011;40108;53.152;5.844;2022-08-20T06:07:23;13.90;;;3.40;;
54201;SDS011;40108;53.152;5.844;2022-08-20T06:09:49;11.13;;;2.80;;
54201;SDS011;40108;53.152;5.844;2022-08-20T06:12:15;10.23;;;2.50;;
54201;SDS011;40108;53.152;5.844;2022-08-20T06:14:43;7.00;;;2.17;;
54201;SDS011;40108;53.152;5.844;2022-08-20T06:17:15;9.55;;;2.78;;
54201;SDS011;40108;53.152;5.844;2022-08-20T06:19:43;11.70;;;2.30;;
54201;SDS011;40108;53.152;5.844;2022-08-20T06:22:10;9.85;;;2.40;;
54201;SDS011;40108;53.152;5.844;2022-08-20T06:24:37;8.73;;;2.10;;
54201;SDS011;40108;53.152;5.844;2022-08-20T06:27:03;11.13;;;2.20;;
54201;SDS011;40108;53.152;5.844;2022-08-20T06:29:29;7.93;;;2.15;;
54201;SDS011;40108;53.152;5.844;2022-08-20T06:31:57;9.45;;;2.03;;
54201;SDS011;40108;53.152;5.844;2022-08-20T06:34:23;7.88;;;2.42;;
54201;SDS011;40108;53.152;5.844;2022-08-20T06:36:52;7.72;;;1.95;;
54201;SDS011;40108;53.152;5.844;2022-08-20T06:39:19;5.88;;;1.83;;
54201;SDS011;40108;53.152;5.844;2022-08-20T06:41:44;9.27;;;2.13;;
54201;SDS011;40108;53.152;5.844;2022-08-20T06:44:10;11.63;;;2.20;;
54201;SDS011;40108;53.152;5.844;2022-08-20T06:46:36;8.82;;;2.13;;
54201;SDS011;40108;53.152;5.844;2022-08-20T06:49:03;5.03;;;1.73;;
54201;SDS011;40108;53.152;5.844;2022-08-20T06:51:30;12.00;;;1.98;;
54201;SDS011;40108;53.152;5.844;2022-08-20T06:53:55;11.35;;;1.63;;
54201;SDS011;40108;53.152;5.844;2022-08-20T06:56:21;10.57;;;2.10;;
54201;SDS011;40108;53.152;5.844;2022-08-20T06:58:47;10.43;;;2.38;;
54201;SDS011;40108;53.152;5.844;2022-08-20T07:01:13;9.30;;;1.88;;
54201;SDS011;40108;53.152;5.844;2022-08-20T07:03:40;8.40;;;2.47;;
54201;SDS011;40108;53.152;5.844;2022-08-20T07:06:06;8.77;;;2.20;;
54201;SDS011;40108;53.152;5.844;2022-08-20T07:08:33;9.27;;;2.53;;
54201;SDS011;40108;53.152;5.844;2022-08-20T07:10:59;7.07;;;1.80;;
54201;SDS011;40108;53.152;5.844;2022-08-20T07:13:26;9.63;;;2.40;;
54201;SDS011;40108;53.152;5.844;2022-08-20T07:15:52;10.07;;;1.73;;
54201;SDS011;40108;53.152;5.844;2022-08-20T07:18:20;9.27;;;1.90;;
54201;SDS011;40108;53.152;5.844;2022-08-20T07:20:46;11.07;;;2.08;;
54201;SDS011;40108;53.152;5.844;2022-08-20T07:23:12;12.48;;;1.65;;
54201;SDS011;40108;53.152;5.844;2022-08-20T07:25:39;9.93;;;1.52;;
54201;SDS011;40108;53.152;5.844;2022-08-20T07:28:08;7.53;;;1.60;;
54201;SDS011;40108;53.152;5.844;2022-08-20T07:30:38;7.90;;;1.48;;
54201;SDS011;40108;53.152;5.844;2022-08-20T07:33:22;8.43;;;1.42;;
54201;SDS011;40108;53.152;5.844;2022-08-20T07:35:48;11.40;;;1.77;;
54201;SDS011;40108;53.152;5.844;2022-08-20T07:38:14;8.48;;;1.90;;
54201;SDS011;40108;53.152;5.844;2022-08-20T07:40:47;6.10;;;1.33;;
54201;SDS011;40108;53.152;5.844;2022-08-20T07:43:35;9.20;;;1.73;;
54201;SDS011;40108;53.152;5.844;2022-08-20T07:46:25;8.50;;;1.77;;
54201;SDS011;40108;53.152;5.844;2022-08-20T07:48:51;15.85;;;1.50;;
54201;SDS011;40108;53.152;5.844;2022-08-20T07:51:17;9.98;;;2.05;;
54201;SDS011;40108;53.152;5.844;2022-08-20T07:53:46;11.38;;;2.08;;
54201;SDS011;40108;53.152;5.844;2022-08-20T07:56:15;5.97;;;1.30;;
54201;SDS011;40108;53.152;5.844;2022-08-20T07:58:44;6.75;;;1.30;;
54201;SDS011;40108;53.152;5.844;2022-08-20T08:01:18;8.75;;;1.48;;
54201;SDS011;40108;53.152;5.844;2022-08-20T08:03:47;10.82;;;1.70;;
54201;SDS011;40108;53.152;5.844;2022-08-20T08:06:12;9.68;;;1.75;;
54201;SDS011;40108;53.152;5.844;2022-08-20T08:08:39;9.90;;;1.65;;
54201;SDS011;40108;53.152;5.844;2022-08-20T08:11:06;10.27;;;1.48;;
54201;SDS011;40108;53.152;5.844;2022-08-20T08:13:33;9.35;;;1.77;;
54201;SDS011;40108;53.152;5.844;2022-08-20T08:16:04;7.05;;;1.42;;
54201;SDS011;40108;53.152;5.844;2022-08-20T08:18:49;8.77;;;1.65;;
54201;SDS011;40108;53.152;5.844;2022-08-20T08:21:20;6.55;;;1.40;;
54201;SDS011;40108;53.152;5.844;2022-08-20T08:23:46;9.63;;;1.60;;
54201;SDS011;40108;53.152;5.844;2022-08-20T08:26:12;7.75;;;1.73;;
54201;SDS011;40108;53.152;5.844;2022-08-20T08:28:40;8.20;;;1.58;;
54201;SDS011;40108;53.152;5.844;2022-08-20T08:31:08;11.05;;;1.83;;
54201;SDS011;40108;53.152;5.844;2022-08-20T08:33:34;9.73;;;1.95;;
54201;SDS011;40108;53.152;5.844;2022-08-20T08:36:05;12.85;;;2.15;;
54201;SDS011;40108;53.152;5.844;2022-08-20T08:38:40;10.65;;;1.98;;
54201;SDS011;40108;53.152;5.844;2022-08-20T08:43:47;14.05;;;2.55;;
54201;SDS011;40108;53.152;5.844;2022-08-20T08:46:18;9.43;;;1.73;;
54201;SDS011;40108;53.152;5.844;2022-08-20T08:48:49;7.38;;;1.45;;
54201;SDS011;40108;53.152;5.844;2022-08-20T08:51:20;9.80;;;1.80;;
54201;SDS011;40108;53.152;5.844;2022-08-20T08:53:57;9.82;;;2.00;;
54201;SDS011;40108;53.152;5.844;2022-08-20T08:56:25;16.80;;;3.75;;
54201;SDS011;40108;53.152;5.844;2022-08-20T08:58:52;8.82;;;2.08;;
54201;SDS011;40108;53.152;5.844;2022-08-20T09:01:28;12.13;;;2.20;;
54201;SDS011;40108;53.152;5.844;2022-08-20T09:03:57;12.18;;;3.08;;
54201;SDS011;40108;53.152;5.844;2022-08-20T09:06:25;10.48;;;2.05;;
54201;SDS011;40108;53.152;5.844;2022-08-20T09:08:57;8.60;;;2.58;;
54201;SDS011;40108;53.152;5.844;2022-08-20T09:11:26;17.08;;;3.17;;
54201;SDS011;40108;53.152;5.844;2022-08-20T09:13:53;11.00;;;2.15;;
54201;SDS011;40108;53.152;5.844;2022-08-20T09:16:21;13.68;;;2.53;;
54201;SDS011;40108;53.152;5.844;2022-08-20T09:18:48;12.75;;;1.55;;
54201;SDS011;40108;53.152;5.844;2022-08-20T09:21:14;5.97;;;1.20;;
54201;SDS011;40108;53.152;5.844;2022-08-20T09:23:41;6.43;;;1.73;;
54201;SDS011;40108;53.152;5.844;2022-08-20T09:26:07;6.75;;;1.50;;
54201;SDS011;40108;53.152;5.844;2022-08-20T09:28:33;7.90;;;1.20;;
54201;SDS011;40108;53.152;5.844;2022-08-20T09:31:02;6.53;;;1.60;;
54201;SDS011;40108;53.152;5.844;2022-08-20T09:33:28;10.00;;;1.83;;
54201;SDS011;40108;53.152;5.844;2022-08-20T09:35:54;8.20;;;1.60;;
54201;SDS011;40108;53.152;5.844;2022-08-20T09:38:19;7.45;;;1.17;;
54201;SDS011;40108;53.152;5.844;2022-08-20T09:40:45;6.45;;;1.55;;
54201;SDS011;40108;53.152;5.844;2022-08-20T09:43:11;8.68;;;1.77;;
54201;SDS011;40108;53.152;5.844;2022-08-20T09:45:37;6.30;;;1.23;;
54201;SDS011;40108;53.152;5.844;2022-08-20T09:48:03;8.68;;;1.90;;
54201;SDS011;40108;53.152;5.844;2022-08-20T09:50:29;7.22;;;1.55;;
54201;SDS011;40108;53.152;5.844;2022-08-20T09:52:57;7.82;;;1.73;;
54201;SDS011;40108;53.152;5.844;2022-08-20T09:58:02;6.38;;;1.50;;
54201;SDS011;40108;53.152;5.844;2022-08-20T10:00:31;7.90;;;1.70;;
54201;SDS011;40108;53.152;5.844;2022-08-20T10:02:56;6.32;;;1.40;;
54201;SDS011;40108;53.152;5.844;2022-08-20T10:05:24;11.00;;;1.50;;
54201;SDS011;40108;53.152;5.844;2022-08-20T10:07:50;9.20;;;2.05;;
54201;SDS011;40108;53.152;5.844;2022-08-20T10:10:16;8.25;;;1.58;;
54201;SDS011;40108;53.152;5.844;2022-08-20T10:12:41;7.35;;;1.65;;
54201;SDS011;40108;53.152;5.844;2022-08-20T10:15:07;8.32;;;1.98;;
54201;SDS011;40108;53.152;5.844;2022-08-20T10:17:41;7.00;;;1.55;;
54201;SDS011;40108;53.152;5.844;2022-08-20T10:20:07;11.18;;;2.00;;
54201;SDS011;40108;53.152;5.844;2022-08-20T10:22:41;7.50;;;1.60;;
54201;SDS011;40108;53.152;5.844;2022-08-20T10:25:07;7.80;;;1.40;;
54201;SDS011;40108;53.152;5.844;2022-08-20T10:27:33;7.18;;;1.42;;
54201;SDS011;40108;53.152;5.844;2022-08-20T10:29:58;9.60;;;1.50;;
54201;SDS011;40108;53.152;5.844;2022-08-20T10:32:24;5.90;;;1.50;;
54201;SDS011;40108;53.152;5.844;2022-08-20T10:34:50;10.55;;;1.58;;
54201;SDS011;40108;53.152;5.844;2022-08-20T10:37:17;4.68;;;1.25;;
54201;SDS011;40108;53.152;5.844;2022-08-20T10:39:44;7.45;;;1.50;;
54201;SDS011;40108;53.152;5.844;2022-08-20T10:42:10;6.25;;;1.35;;
54201;SDS011;40108;53.152;5.844;2022-08-20T10:44:37;6.97;;;1.50;;
54201;SDS011;40108;53.152;5.844;2022-08-20T10:47:22;7.03;;;1.83;;
54201;SDS011;40108;53.152;5.844;2022-08-20T10:49:50;6.18;;;1.52;;
54201;SDS011;40108;53.152;5.844;2022-08-20T10:52:18;9.60;;;1.60;;
54201;SDS011;40108;53.152;5.844;2022-08-20T10:54:44;8.57;;;1.60;;
54201;SDS011;40108;53.152;5.844;2022-08-20T10:57:15;8.60;;;1.42;;
54201;SDS011;40108;53.152;5.844;2022-08-20T10:59:46;8.40;;;1.60;;
54201;SDS011;40108;53.152;5.844;2022-08-20T11:02:14;8.60;;;1.60;;
54201;SDS011;40108;53.152;5.844;2022-08-20T11:04:40;8.98;;;1.50;;
54201;SDS011;40108;53.152;5.844;2022-08-20T11:07:26;9.52;;;1.65;;
54201;SDS011;40108;53.152;5.844;2022-08-20T11:09:54;10.68;;;1.80;;
54201;SDS011;40108;53.152;5.844;2022-08-20T11:12:20;5.07;;;1.27;;
54201;SDS011;40108;53.152;5.844;2022-08-20T11:14:47;6.32;;;1.40;;
54201;SDS011;40108;53.152;5.844;2022-08-20T11:17:25;6.15;;;1.20;;
54201;SDS011;40108;53.152;5.844;2022-08-20T11:19:52;6.68;;;1.58;;
54201;SDS011;40108;53.152;5.844;2022-08-20T11:22:19;8.57;;;1.80;;
54201;SDS011;40108;53.152;5.844;2022-08-20T11:24:45;6.75;;;1.50;;
54201;SDS011;40108;53.152;5.844;2022-08-20T11:27:18;11.10;;;1.45;;
54201;SDS011;40108;53.152;5.844;2022-08-20T11:29:48;8.43;;;1.75;;
54201;SDS011;40108;53.152;5.844;2022-08-20T11:32:14;5.45;;;1.58;;
54201;SDS011;40108;53.152;5.844;2022-08-20T11:34:40;7.25;;;1.50;;
54201;SDS011;40108;53.152;5.844;2022-08-20T11:37:06;5.45;;;1.55;;
54201;SDS011;40108;53.152;5.844;2022-08-20T11:39:32;9.90;;;1.75;;
54201;SDS011;40108;53.152;5.844;2022-08-20T11:41:57;7.85;;;1.58;;
54201;SDS011;40108;53.152;5.844;2022-08-20T11:44:23;7.75;;;1.55;;
54201;SDS011;40108;53.152;5.844;2022-08-20T11:46:49;8.23;;;2.00;;
54201;SDS011;40108;53.152;5.844;2022-08-20T11:49:14;10.15;;;2.05;;
54201;SDS011;40108;53.152;5.844;2022-08-20T11:51:40;8.60;;;2.05;;
54201;SDS011;40108;53.152;5.844;2022-08-20T11:54:06;6.85;;;1.60;;
54201;SDS011;40108;53.152;5.844;2022-08-20T11:56:31;8.10;;;1.70;;
54201;SDS011;40108;53.152;5.844;2022-08-20T11:58:57;7.25;;;1.50;;
54201;SDS011;40108;53.152;5.844;2022-08-20T12:01:23;7.97;;;1.67;;
54201;SDS011;40108;53.152;5.844;2022-08-20T12:03:49;7.57;;;1.50;;
54201;SDS011;40108;53.152;5.844;2022-08-20T12:06:14;5.53;;;1.50;;
54201;SDS011;40108;53.152;5.844;2022-08-20T12:08:40;10.20;;;1.65;;
54201;SDS011;40108;53.152;5.844;2022-08-20T12:11:06;4.68;;;1.40;;
54201;SDS011;40108;53.152;5.844;2022-08-20T12:13:33;9.50;;;1.60;;
54201;SDS011;40108;53.152;5.844;2022-08-20T12:16:00;7.28;;;1.70;;
54201;SDS011;40108;53.152;5.844;2022-08-20T12:18:26;6.55;;;1.42;;
54201;SDS011;40108;53.152;5.844;2022-08-20T12:20:52;5.18;;;1.25;;
54201;SDS011;40108;53.152;5.844;2022-08-20T12:23:18;8.38;;;1.52;;
54201;SDS011;40108;53.152;5.844;2022-08-20T12:25:44;6.75;;;1.40;;
54201;SDS011;40108;53.152;5.844;2022-08-20T12:28:14;8.88;;;1.50;;
54201;SDS011;40108;53.152;5.844;2022-08-20T12:30:40;9.63;;;1.50;;
54201;SDS011;40108;53.152;5.844;2022-08-20T12:33:06;6.28;;;1.30;;
54201;SDS011;40108;53.152;5.844;2022-08-20T12:35:32;8.30;;;1.40;;
54201;SDS011;40108;53.152;5.844;2022-08-20T12:38:01;8.63;;;1.60;;
54201;SDS011;40108;53.152;5.844;2022-08-20T12:40:28;9.68;;;1.67;;
54201;SDS011;40108;53.152;5.844;2022-08-20T12:42:54;7.43;;;1.38;;
54201;SDS011;40108;53.152;5.844;2022-08-20T12:45:20;5.22;;;1.27;;
54201;SDS011;40108;53.152;5.844;2022-08-20T12:47:46;4.93;;;1.33;;
54201;SDS011;40108;53.152;5.844;2022-08-20T12:50:23;5.90;;;1.38;;
54201;SDS011;40108;53.152;5.844;2022-08-20T12:52:50;8.05;;;1.42;;
54201;SDS011;40108;53.152;5.844;2022-08-20T12:55:17;6.53;;;1.17;;
54201;SDS011;40108;53.152;5.844;2022-08-20T12:57:48;7.00;;;1.17;;
54201;SDS011;40108;53.152;5.844;2022-08-20T13:00:19;8.30;;;1.88;;
54201;SDS011;40108;53.152;5.844;2022-08-20T13:02:47;6.70;;;1.38;;
54201;SDS011;40108;53.152;5.844;2022-08-20T13:05:14;5.45;;;1.38;;
54201;SDS011;40108;53.152;5.844;2022-08-20T13:07:41;4.28;;;1.27;;
54201;SDS011;40108;53.152;5.844;2022-08-20T13:10:11;6.97;;;1.85;;
54201;SDS011;40108;53.152;5.844;2022-08-20T13:12:41;5.53;;;1.40;;
54201;SDS011;40108;53.152;5.844;2022-08-20T13:15:07;8.55;;;1.60;;
54201;SDS011;40108;53.152;5.844;2022-08-20T13:17:33;6.15;;;1.40;;
54201;SDS011;40108;53.152;5.844;2022-08-20T13:20:03;4.95;;;1.50;;
54201;SDS011;40108;53.152;5.844;2022-08-20T13:22:30;8.80;;;2.17;;
54201;SDS011;40108;53.152;5.844;2022-08-20T13:24:55;7.32;;;1.50;;
54201;SDS011;40108;53.152;5.844;2022-08-20T13:27:21;7.35;;;1.35;;
54201;SDS011;40108;53.152;5.844;2022-08-20T13:29:49;5.18;;;1.30;;
54201;SDS011;40108;53.152;5.844;2022-08-20T13:32:17;9.95;;;1.60;;
54201;SDS011;40108;53.152;5.844;2022-08-20T13:34:43;5.10;;;1.30;;
54201;SDS011;40108;53.152;5.844;2022-08-20T13:39:43;7.35;;;1.40;;
54201;SDS011;40108;53.152;5.844;2022-08-20T13:42:10;7.18;;;1.50;;
54201;SDS011;40108;53.152;5.844;2022-08-20T13:44:37;6.13;;;1.77;;
54201;SDS011;40108;53.152;5.844;2022-08-20T13:47:19;9.07;;;1.50;;
54201;SDS011;40108;53.152;5.844;2022-08-20T13:49:56;5.40;;;1.58;;
54201;SDS011;40108;53.152;5.844;2022-08-20T13:52:24;6.45;;;1.42;;
54201;SDS011;40108;53.152;5.844;2022-08-20T13:54:51;5.88;;;1.60;;
54201;SDS011;40108;53.152;5.844;2022-08-20T13:57:17;7.15;;;1.50;;
54201;SDS011;40108;53.152;5.844;2022-08-20T13:59:45;7.88;;;1.85;;
54201;SDS011;40108;53.152;5.844;2022-08-20T14:02:13;6.88;;;1.60;;
54201;SDS011;40108;53.152;5.844;2022-08-20T14:04:40;10.60;;;1.70;;
54201;SDS011;40108;53.152;5.844;2022-08-20T14:07:10;5.78;;;1.65;;
54201;SDS011;40108;53.152;5.844;2022-08-20T14:09:39;13.65;;;2.50;;
54201;SDS011;40108;53.152;5.844;2022-08-20T14:12:07;6.18;;;1.67;;
54201;SDS011;40108;53.152;5.844;2022-08-20T14:14:33;10.27;;;2.15;;
54201;SDS011;40108;53.152;5.844;2022-08-20T14:17:10;8.75;;;1.83;;
54201;SDS011;40108;53.152;5.844;2022-08-20T14:19:44;10.65;;;1.90;;
54201;SDS011;40108;53.152;5.844;2022-08-20T14:22:11;9.55;;;1.67;;
54201;SDS011;40108;53.152;5.844;2022-08-20T14:24:37;6.95;;;1.70;;
54201;SDS011;40108;53.152;5.844;2022-08-20T14:27:04;9.40;;;2.15;;
54201;SDS011;40108;53.152;5.844;2022-08-20T14:29:34;7.43;;;1.77;;
54201;SDS011;40108;53.152;5.844;2022-08-20T14:34:29;9.23;;;1.98;;
54201;SDS011;40108;53.152;5.844;2022-08-20T14:36:56;10.18;;;1.90;;
54201;SDS011;40108;53.152;5.844;2022-08-20T14:39:33;5.70;;;1.70;;
54201;SDS011;40108;53.152;5.844;2022-08-20T14:41:58;8.23;;;1.67;;
54201;SDS011;40108;53.152;5.844;2022-08-20T14:44:24;7.18;;;1.60;;
54201;SDS011;40108;53.152;5.844;2022-08-20T14:46:50;10.80;;;1.90;;
54201;SDS011;40108;53.152;5.844;2022-08-20T14:49:15;8.45;;;1.90;;
54201;SDS011;40108;53.152;5.844;2022-08-20T14:51:41;8.02;;;1.80;;
54201;SDS011;40108;53.152;5.844;2022-08-20T14:54:06;10.07;;;1.70;;
54201;SDS011;40108;53.152;5.844;2022-08-20T14:56:32;8.57;;;1.75;;
54201;SDS011;40108;53.152;5.844;2022-08-20T14:58:58;7.03;;;1.73;;
54201;SDS011;40108;53.152;5.844;2022-08-20T15:01:23;6.55;;;2.33;;
54201;SDS011;40108;53.152;5.844;2022-08-20T15:03:49;12.07;;;2.33;;
54201;SDS011;40108;53.152;5.844;2022-08-20T15:06:15;9.38;;;1.85;;
54201;SDS011;40108;53.152;5.844;2022-08-20T15:08:40;5.43;;;1.90;;